Time;durP1;ratioP1;P1;durP2;ratioP2;P2;SDS_P1;SDS_P2;PMS_P1;PMS_P2;Temp;Humidity;BMP_temperature;BMP_pressure;BME280_temperature;BME280_humidity;BME280_pressure;Samples;Min_cycle;Max_cycle;Signal;HPM_P1;HPM_P2
2022/01/14 00:00:06;;;;;;;45.73;30.63;;;;;;;;;;5031318;28;20103;-70
2022/01/14 00:02:32;;;;;;;51.40;31.85;;;;;;;;;;5031639;28;20050;-70
2022/01/14 00:04:58;;;;;;;50.47;31.27;;;;;;;;;;5030978;28;20045;-70
2022/01/14 00:07:26;;;;;;;53.85;31.48;;;;;;;;;;5030109;28;20099;-70
2022/01/14 00:09:54;;;;;;;48.05;31.20;;;;;;;;;;5031223;28;20073;-70
2022/01/14 00:12:26;;;;;;;50.47;33.20;;;;;;;;;;5031582;28;20409;-70
2022/01/14 00:14:59;;;;;;;48.50;31.25;;;;;;;;;;5030059;28;20046;-70
2022/01/14 00:17:25;;;;;;;44.22;30.20;;;;;;;;;;5030387;28;20390;-70
2022/01/14 00:19:52;;;;;;;48.05;29.98;;;;;;;;;;5030792;28;20045;-70
2022/01/14 00:22:19;;;;;;;49.67;30.45;;;;;;;;;;5031413;28;20096;-70
2022/01/14 00:33:02;;;;;;;44.88;30.15;;;;;;;;;;5031404;28;20041;-70
2022/01/14 00:35:28;;;;;;;47.88;29.90;;;;;;;;;;5030142;28;20084;-70
2022/01/14 00:37:55;;;;;;;52.20;31.40;;;;;;;;;;5032025;28;20045;-70
2022/01/14 00:40:22;;;;;;;48.67;29.50;;;;;;;;;;5034956;28;20107;-70
2022/01/14 00:42:49;;;;;;;45.13;29.60;;;;;;;;;;5035127;28;20501;-70
2022/01/14 00:45:16;;;;;;;42.50;29.60;;;;;;;;;;5034410;28;20050;-70
2022/01/14 00:47:43;;;;;;;47.33;29.17;;;;;;;;;;5035221;28;20046;-70
2022/01/14 00:50:11;;;;;;;43.42;29.30;;;;;;;;;;5034300;28;20041;-70
2022/01/14 00:52:39;;;;;;;42.78;28.45;;;;;;;;;;5035186;28;20053;-70
2022/01/14 00:55:07;;;;;;;47.28;30.73;;;;;;;;;;5034450;28;20045;-70
2022/01/14 01:00:20;;;;;;;43.30;29.60;;;;;;;;;;5034165;28;20045;-70
2022/01/14 01:02:46;;;;;;;45.25;28.15;;;;;;;;;;5034934;28;20049;-70
2022/01/14 01:05:13;;;;;;;41.58;27.60;;;;;;;;;;5034284;28;20099;-70
2022/01/14 01:07:41;;;;;;;45.20;29.07;;;;;;;;;;5034797;28;20108;-70
2022/01/14 01:10:09;;;;;;;49.03;29.40;;;;;;;;;;5034084;28;20050;-70
2022/01/14 01:12:49;;;;;;;46.75;29.70;;;;;;;;;;5033548;28;20100;-70
2022/01/14 01:15:17;;;;;;;45.80;28.50;;;;;;;;;;5034010;28;20049;-70
2022/01/14 01:17:44;;;;;;;45.50;28.95;;;;;;;;;;5033541;28;20119;-70
2022/01/14 01:20:12;;;;;;;41.85;28.95;;;;;;;;;;5034671;28;20224;-70
2022/01/14 01:22:39;;;;;;;45.03;30.55;;;;;;;;;;5034501;28;20570;-70
2022/01/14 01:25:06;;;;;;;41.65;28.83;;;;;;;;;;5033705;28;20096;-71
2022/01/14 01:27:38;;;;;;;45.60;29.50;;;;;;;;;;5033020;28;20562;-70
2022/01/14 01:30:14;;;;;;;44.45;29.52;;;;;;;;;;5033906;28;20386;-70
2022/01/14 01:32:45;;;;;;;42.00;29.35;;;;;;;;;;5034470;28;20131;-71
2022/01/14 01:35:12;;;;;;;47.97;29.13;;;;;;;;;;5033560;28;20092;-70
2022/01/14 01:37:39;;;;;;;41.30;28.38;;;;;;;;;;5034362;28;20099;-70
2022/01/14 01:40:06;;;;;;;45.58;28.00;;;;;;;;;;5033674;28;20440;-70
2022/01/14 01:42:33;;;;;;;46.67;27.23;;;;;;;;;;5034011;28;20049;-70
2022/01/14 01:44:59;;;;;;;42.78;27.38;;;;;;;;;;5033787;28;20053;-70
2022/01/14 01:47:26;;;;;;;41.20;26.88;;;;;;;;;;5033986;28;20049;-71
2022/01/14 01:49:53;;;;;;;41.42;27.15;;;;;;;;;;5032913;28;20077;-70
2022/01/14 01:52:19;;;;;;;38.83;26.20;;;;;;;;;;5032972;28;20483;-71
2022/01/14 01:54:46;;;;;;;39.88;26.65;;;;;;;;;;5033069;28;20104;-70
2022/01/14 01:57:12;;;;;;;39.28;26.60;;;;;;;;;;5033401;28;20049;-70
2022/01/14 01:59:39;;;;;;;44.63;29.40;;;;;;;;;;5032988;28;20073;-70
2022/01/14 02:02:06;;;;;;;43.42;26.75;;;;;;;;;;5033775;28;20408;-70
2022/01/14 02:04:32;;;;;;;41.55;27.77;;;;;;;;;;5033180;28;20049;-70
2022/01/14 02:06:58;;;;;;;41.70;28.30;;;;;;;;;;5033587;28;20087;-70
2022/01/14 02:09:25;;;;;;;38.90;26.95;;;;;;;;;;5031291;28;20049;-70
2022/01/14 02:11:52;;;;;;;46.65;28.75;;;;;;;;;;5033437;28;20056;-70
2022/01/14 02:22:09;;;;;;;38.72;26.15;;;;;;;;;;5027916;28;20045;-70
2022/01/14 02:22:45;;;;;;;43.85;27.10;;;;;;;;;;5033405;28;20049;-70
2022/01/14 02:25:12;;;;;;;36.42;26.15;;;;;;;;;;5032086;28;20490;-70
2022/01/14 02:27:38;;;;;;;36.67;26.17;;;;;;;;;;5032132;28;20107;-70
2022/01/14 02:30:05;;;;;;;39.65;26.15;;;;;;;;;;5032864;28;20045;-70
2022/01/14 02:32:31;;;;;;;42.30;27.13;;;;;;;;;;5032723;28;20104;-71
2022/01/14 02:34:58;;;;;;;39.25;25.85;;;;;;;;;;5032697;28;20436;-70
2022/01/14 02:37:41;;;;;;;40.60;26.33;;;;;;;;;;5032889;28;20045;-70
2022/01/14 02:40:08;;;;;;;42.78;28.08;;;;;;;;;;5032493;28;20072;-70
2022/01/14 02:42:34;;;;;;;42.15;26.75;;;;;;;;;;5032470;28;20517;-70
2022/01/14 02:45:05;;;;;;;42.55;25.33;;;;;;;;;;5032369;28;20121;-70
2022/01/14 02:47:32;;;;;;;42.45;26.55;;;;;;;;;;5032777;28;20563;-70
2022/01/14 02:49:59;;;;;;;37.03;26.08;;;;;;;;;;5032126;28;20053;-70
2022/01/14 02:55:18;;;;;;;39.80;27.45;;;;;;;;;;5030058;28;20456;-71
2022/01/14 02:57:49;;;;;;;42.42;26.73;;;;;;;;;;5033016;28;20072;-71
2022/01/14 03:00:16;;;;;;;37.10;25.38;;;;;;;;;;5023272;28;20046;-71
2022/01/14 03:02:45;;;;;;;41.25;25.58;;;;;;;;;;5031131;28;20065;-71
2022/01/14 03:05:11;;;;;;;35.42;25.40;;;;;;;;;;5032008;28;20049;-71
2022/01/14 03:07:39;;;;;;;39.60;24.77;;;;;;;;;;5032301;28;20103;-71
2022/01/14 03:10:06;;;;;;;37.22;25.80;;;;;;;;;;5031373;28;20525;-71
2022/01/14 03:12:32;;;;;;;34.53;25.35;;;;;;;;;;5032391;28;20455;-71
2022/01/14 03:14:59;;;;;;;37.28;24.17;;;;;;;;;;5031725;28;20429;-71
2022/01/14 03:17:27;;;;;;;36.33;24.88;;;;;;;;;;5032499;28;20421;-71
2022/01/14 03:19:54;;;;;;;37.25;25.00;;;;;;;;;;5031521;28;20103;-71
2022/01/14 03:22:28;;;;;;;34.78;24.15;;;;;;;;;;5032134;28;20490;-71
2022/01/14 03:27:21;;;;;;;38.53;24.35;;;;;;;;;;5032276;28;20111;-71
2022/01/14 03:29:47;;;;;;;34.30;22.42;;;;;;;;;;5031592;28;20049;-71
2022/01/14 03:32:14;;;;;;;37.25;24.52;;;;;;;;;;5032407;28;20050;-71
2022/01/14 03:34:40;;;;;;;35.40;24.60;;;;;;;;;;5031359;28;20041;-70
2022/01/14 03:37:07;;;;;;;34.05;23.77;;;;;;;;;;5031858;28;20115;-71
2022/01/14 03:39:33;;;;;;;31.92;22.75;;;;;;;;;;5031402;28;20077;-71
2022/01/14 03:42:01;;;;;;;32.83;22.43;;;;;;;;;;5032271;28;20459;-71
2022/01/14 03:44:27;;;;;;;33.33;22.88;;;;;;;;;;5031529;28;20290;-71
2022/01/14 03:46:53;;;;;;;31.00;22.65;;;;;;;;;;5032076;28;20049;-71
2022/01/14 03:49:20;;;;;;;36.97;25.27;;;;;;;;;;5031546;28;20123;-71
2022/01/14 03:51:46;;;;;;;34.80;22.67;;;;;;;;;;5031714;28;20049;-71
2022/01/14 03:54:13;;;;;;;36.08;24.02;;;;;;;;;;5031389;28;20100;-71
2022/01/14 03:56:39;;;;;;;36.53;23.30;;;;;;;;;;5031523;28;20053;-71
2022/01/14 03:59:06;;;;;;;37.83;24.23;;;;;;;;;;5031639;28;20046;-71
2022/01/14 04:01:32;;;;;;;32.33;22.85;;;;;;;;;;5031430;28;20046;-71
2022/01/14 04:03:59;;;;;;;39.38;24.75;;;;;;;;;;5031572;28;20052;-71
2022/01/14 04:06:25;;;;;;;31.05;22.38;;;;;;;;;;5031068;28;20104;-71
2022/01/14 04:08:53;;;;;;;36.97;22.08;;;;;;;;;;5030296;28;20464;-71
2022/01/14 04:11:19;;;;;;;31.98;22.77;;;;;;;;;;5030919;28;20049;-71
2022/01/14 04:13:52;;;;;;;36.30;23.75;;;;;;;;;;5033734;28;20107;-70
2022/01/14 04:16:19;;;;;;;35.22;23.38;;;;;;;;;;5037706;28;20050;-71
2022/01/14 04:18:47;;;;;;;32.10;23.20;;;;;;;;;;5038110;28;20572;-71
2022/01/14 04:21:13;;;;;;;31.95;22.95;;;;;;;;;;5037623;28;20477;-71
2022/01/14 04:23:40;;;;;;;36.67;23.92;;;;;;;;;;5038145;28;20053;-70
2022/01/14 04:26:06;;;;;;;35.08;22.65;;;;;;;;;;5037689;28;20112;-71
2022/01/14 04:28:36;;;;;;;34.75;23.15;;;;;;;;;;5038408;28;20120;-71
2022/01/14 04:31:04;;;;;;;34.42;23.15;;;;;;;;;;5037323;28;20489;-71
2022/01/14 04:33:31;;;;;;;34.38;22.98;;;;;;;;;;5036820;28;20095;-71
2022/01/14 04:35:59;;;;;;;39.00;23.35;;;;;;;;;;5037704;28;20050;-71
2022/01/14 04:38:29;;;;;;;42.88;23.23;;;;;;;;;;5038108;28;20038;-71
2022/01/14 04:40:55;;;;;;;38.35;23.40;;;;;;;;;;5037625;28;20386;-71
2022/01/14 04:43:22;;;;;;;39.58;23.05;;;;;;;;;;5037773;28;20543;-71
2022/01/14 04:48:22;;;;;;;34.92;23.33;;;;;;;;;;5037747;28;20111;-71
2022/01/14 04:50:51;;;;;;;39.00;22.57;;;;;;;;;;5037072;28;20095;-71
2022/01/14 04:53:17;;;;;;;40.83;23.23;;;;;;;;;;5038006;28;20095;-71
2022/01/14 04:55:44;;;;;;;61.65;24.70;;;;;;;;;;5037035;28;20049;-71
2022/01/14 04:58:10;;;;;;;50.05;23.05;;;;;;;;;;5037963;28;20123;-71
2022/01/14 05:00:38;;;;;;;55.95;24.95;;;;;;;;;;5037396;28;20045;-71
2022/01/14 05:03:05;;;;;;;66.18;24.00;;;;;;;;;;5037632;28;20564;-71
2022/01/14 05:05:35;;;;;;;71.72;24.38;;;;;;;;;;5036716;28;20052;-71
2022/01/14 05:08:02;;;;;;;66.93;26.25;;;;;;;;;;5037742;28;20509;-71
2022/01/14 05:12:55;;;;;;;54.72;23.45;;;;;;;;;;5037841;28;20060;-71
2022/01/14 05:15:21;;;;;;;44.55;24.58;;;;;;;;;;5042405;28;20414;-71
2022/01/14 05:17:48;;;;;;;46.33;23.77;;;;;;;;;;5037716;28;20076;-71
2022/01/14 05:20:16;;;;;;;47.88;24.85;;;;;;;;;;5037237;28;20045;-71
2022/01/14 05:22:43;;;;;;;40.20;24.33;;;;;;;;;;5037682;28;20049;-71
2022/01/14 05:25:10;;;;;;;43.97;22.77;;;;;;;;;;5034019;28;20084;-71
2022/01/14 05:27:37;;;;;;;42.15;24.13;;;;;;;;;;5033508;28;20115;-71
2022/01/14 05:30:04;;;;;;;43.35;23.00;;;;;;;;;;5034007;28;20448;-71
2022/01/14 05:32:30;;;;;;;37.42;20.63;;;;;;;;;;5034396;28;20046;-71
2022/01/14 05:34:57;;;;;;;39.58;19.80;;;;;;;;;;5031144;28;20053;-71
2022/01/14 05:37:24;;;;;;;39.63;20.58;;;;;;;;;;5034406;28;20069;-71
2022/01/14 05:39:50;;;;;;;50.67;23.13;;;;;;;;;;5033818;28;20042;-71
2022/01/14 05:42:17;;;;;;;46.25;22.00;;;;;;;;;;5034376;28;20075;-71
2022/01/14 05:44:43;;;;;;;56.40;20.92;;;;;;;;;;5033522;28;20046;-71
2022/01/14 05:47:14;;;;;;;53.03;22.48;;;;;;;;;;5034017;28;20053;-71
2022/01/14 05:49:40;;;;;;;49.47;23.13;;;;;;;;;;5033157;28;20080;-71
2022/01/14 05:52:06;;;;;;;48.92;22.10;;;;;;;;;;5033904;28;20100;-71
2022/01/14 05:54:33;;;;;;;50.78;21.90;;;;;;;;;;5033422;28;20076;-71
2022/01/14 05:56:59;;;;;;;47.88;23.80;;;;;;;;;;5033759;28;20506;-71
2022/01/14 05:59:26;;;;;;;43.20;21.92;;;;;;;;;;5033400;28;20045;-71
2022/01/14 06:01:52;;;;;;;44.17;21.40;;;;;;;;;;5033978;28;20119;-71
2022/01/14 06:04:18;;;;;;;46.05;21.77;;;;;;;;;;5033187;28;20485;-71
2022/01/14 06:06:45;;;;;;;45.72;21.55;;;;;;;;;;5033586;28;20079;-71
2022/01/14 06:09:11;;;;;;;41.95;20.83;;;;;;;;;;5033040;28;20667;-71
2022/01/14 06:11:38;;;;;;;46.97;21.00;;;;;;;;;;5033720;28;20103;-71
2022/01/14 06:14:04;;;;;;;47.22;22.52;;;;;;;;;;5033673;28;20405;-71
2022/01/14 06:16:31;;;;;;;41.58;20.20;;;;;;;;;;5033337;28;20049;-71
2022/01/14 06:18:57;;;;;;;41.20;21.15;;;;;;;;;;5033636;28;20053;-71
2022/01/14 06:21:24;;;;;;;41.25;22.00;;;;;;;;;;5033135;28;20488;-71
2022/01/14 06:23:50;;;;;;;49.35;21.42;;;;;;;;;;5033247;28;20179;-71
2022/01/14 06:26:21;;;;;;;39.80;20.75;;;;;;;;;;5032717;28;20490;-71
2022/01/14 06:28:47;;;;;;;43.85;21.58;;;;;;;;;;5033385;28;20448;-71
2022/01/14 06:31:14;;;;;;;43.80;21.02;;;;;;;;;;5030945;28;20050;-71
2022/01/14 06:33:41;;;;;;;48.95;23.13;;;;;;;;;;5033450;28;20448;-71
2022/01/14 06:36:08;;;;;;;40.42;21.67;;;;;;;;;;5016579;28;20409;-71
2022/01/14 06:38:34;;;;;;;40.47;21.13;;;;;;;;;;5032752;28;20547;-71
2022/01/14 06:41:02;;;;;;;44.10;21.05;;;;;;;;;;5029278;28;20045;-71
2022/01/14 06:43:28;;;;;;;44.53;22.37;;;;;;;;;;5033064;28;20056;-71
2022/01/14 06:45:55;;;;;;;47.47;21.67;;;;;;;;;;5032115;28;20775;-71
2022/01/14 06:48:21;;;;;;;42.65;21.58;;;;;;;;;;5032426;28;20128;-71
2022/01/14 06:50:48;;;;;;;42.47;21.83;;;;;;;;;;5032153;28;20126;-71
2022/01/14 06:53:14;;;;;;;34.63;21.98;;;;;;;;;;5032645;28;20114;-72
2022/01/14 06:55:41;;;;;;;37.92;21.17;;;;;;;;;;5031872;28;20053;-71
2022/01/14 06:58:07;;;;;;;42.40;22.30;;;;;;;;;;5032653;28;20053;-72
2022/01/14 07:00:34;;;;;;;42.67;22.63;;;;;;;;;;5032005;28;20386;-71
2022/01/14 07:03:01;;;;;;;49.65;23.70;;;;;;;;;;5032616;28;20569;-71
2022/01/14 07:05:27;;;;;;;35.58;21.90;;;;;;;;;;5032171;28;20053;-70
2022/01/14 07:07:54;;;;;;;42.53;22.08;;;;;;;;;;5032132;28;20045;-70
2022/01/14 07:10:20;;;;;;;40.35;21.30;;;;;;;;;;5031286;28;20049;-71
2022/01/14 07:12:48;;;;;;;39.50;21.85;;;;;;;;;;5032363;28;20053;-71
2022/01/14 07:15:15;;;;;;;44.80;22.45;;;;;;;;;;5028186;28;20104;-71
2022/01/14 07:17:42;;;;;;;37.08;21.63;;;;;;;;;;5012332;28;20096;-71
2022/01/14 07:20:12;;;;;;;38.83;20.83;;;;;;;;;;5029394;28;20472;-72
2022/01/14 07:22:40;;;;;;;38.13;20.40;;;;;;;;;;5032545;28;20107;-72
2022/01/14 07:25:07;;;;;;;35.03;20.98;;;;;;;;;;5023795;28;20050;-71
2022/01/14 07:27:33;;;;;;;30.95;19.17;;;;;;;;;;5017642;28;20050;-73
2022/01/14 07:30:00;;;;;;;32.38;20.52;;;;;;;;;;5024875;28;20100;-71
2022/01/14 07:32:26;;;;;;;36.47;21.38;;;;;;;;;;5011587;28;20115;-73
2022/01/14 07:34:53;;;;;;;44.95;22.35;;;;;;;;;;5028551;28;20053;-73
2022/01/14 07:37:20;;;;;;;44.40;24.15;;;;;;;;;;5028862;28;20041;-70
2022/01/14 07:39:47;;;;;;;48.28;24.40;;;;;;;;;;5031264;28;20457;-71
2022/01/14 07:42:14;;;;;;;44.00;24.25;;;;;;;;;;5028664;28;20132;-73
2022/01/14 07:44:40;;;;;;;42.92;24.17;;;;;;;;;;5021098;28;20041;-72
2022/01/14 07:47:07;;;;;;;37.58;21.50;;;;;;;;;;5031250;28;20555;-72
2022/01/14 07:49:33;;;;;;;37.67;21.13;;;;;;;;;;5028585;28;20099;-71
2022/01/14 07:52:01;;;;;;;39.23;21.67;;;;;;;;;;5019844;28;20049;-71
2022/01/14 07:54:27;;;;;;;37.53;21.67;;;;;;;;;;5030468;28;20787;-70
2022/01/14 07:56:57;;;;;;;35.35;21.08;;;;;;;;;;5012334;28;20050;-71
2022/01/14 07:59:25;;;;;;;36.20;20.75;;;;;;;;;;5028222;28;20045;-69
2022/01/14 08:01:56;;;;;;;35.25;21.40;;;;;;;;;;5026338;28;20041;-70
2022/01/14 08:04:22;;;;;;;37.58;23.00;;;;;;;;;;5030750;28;20132;-71
2022/01/14 08:06:51;;;;;;;40.35;22.42;;;;;;;;;;5013960;28;20100;-71
2022/01/14 08:09:18;;;;;;;40.38;22.73;;;;;;;;;;5026986;28;20099;-70
2022/01/14 08:11:45;;;;;;;38.38;22.77;;;;;;;;;;5030775;28;20049;-70
2022/01/14 08:14:12;;;;;;;35.28;22.30;;;;;;;;;;5030563;28;20053;-70
2022/01/14 08:16:39;;;;;;;39.35;22.17;;;;;;;;;;5031586;28;20149;-72
2022/01/14 08:19:05;;;;;;;35.67;21.10;;;;;;;;;;5030816;28;20049;-72
2022/01/14 08:21:32;;;;;;;36.55;21.15;;;;;;;;;;5030844;28;20041;-71
2022/01/14 08:23:58;;;;;;;33.10;19.88;;;;;;;;;;5030938;28;20099;-71
2022/01/14 08:26:25;;;;;;;35.03;21.15;;;;;;;;;;5013591;28;20070;-72
2022/01/14 08:28:51;;;;;;;35.53;20.38;;;;;;;;;;5011330;28;20096;-72
2022/01/14 08:31:18;;;;;;;36.08;22.02;;;;;;;;;;5029769;28;20046;-72
2022/01/14 08:33:46;;;;;;;37.20;22.30;;;;;;;;;;5031596;28;20049;-73
2022/01/14 08:36:12;;;;;;;;;;;;;;;;;;5030898;28;20103;-72
2022/01/14 08:38:39;;;;;;;33.88;21.02;;;;;;;;;;5031373;28;19925;-71
2022/01/14 08:41:05;;;;;;;41.63;24.08;;;;;;;;;;5016228;28;20046;-71
2022/01/14 08:43:32;;;;;;;41.42;24.25;;;;;;;;;;5028632;28;20045;-71
2022/01/14 08:46:01;;;;;;;37.38;23.80;;;;;;;;;;5030533;28;20099;-71
2022/01/14 08:48:30;;;;;;;45.28;27.65;;;;;;;;;;5031122;28;20056;-72
2022/01/14 08:50:57;;;;;;;46.80;28.58;;;;;;;;;;5030912;28;20103;-71
2022/01/14 08:53:26;;;;;;;38.97;25.13;;;;;;;;;;5031180;28;20068;-71
2022/01/14 08:55:53;;;;;;;34.38;20.92;;;;;;;;;;5022483;28;20053;-70
2022/01/14 08:58:19;;;;;;;31.48;19.90;;;;;;;;;;5011142;28;20046;-69
2022/01/14 09:00:47;;;;;;;40.80;24.83;;;;;;;;;;5025721;28;20343;-69
2022/01/14 09:03:13;;;;;;;;;;;;;;;;;;5034841;28;20519;-70
2022/01/14 09:05:40;;;;;;;37.15;26.30;;;;;;;;;;5033857;28;19921;-71
2022/01/14 09:08:06;;;;;;;39.58;24.75;;;;;;;;;;5035085;28;20053;-71
2022/01/14 09:10:33;;;;;;;32.88;22.10;;;;;;;;;;5034189;28;20053;-70
2022/01/14 09:12:59;;;;;;;37.22;24.88;;;;;;;;;;5033423;28;20050;-71
2022/01/14 09:15:26;;;;;;;38.50;27.40;;;;;;;;;;5034126;28;20104;-71
2022/01/14 09:17:52;;;;;;;32.70;23.63;;;;;;;;;;5034629;28;20080;-70
2022/01/14 09:20:19;;;;;;;36.88;23.42;;;;;;;;;;5034009;28;20049;-70
2022/01/14 09:22:51;;;;;;;35.20;25.02;;;;;;;;;;5034685;28;20045;-70
2022/01/14 09:25:18;;;;;;;33.38;22.98;;;;;;;;;;5033415;28;20058;-70
2022/01/14 09:27:47;;;;;;;35.97;22.95;;;;;;;;;;5034668;28;20111;-70
2022/01/14 09:30:13;;;;;;;36.30;24.88;;;;;;;;;;5033931;28;20083;-70
2022/01/14 09:32:40;;;;;;;35.22;24.20;;;;;;;;;;5034463;28;20421;-70
2022/01/14 09:35:07;;;;;;;37.55;25.33;;;;;;;;;;5033642;28;20053;-71
2022/01/14 09:37:34;;;;;;;46.45;26.25;;;;;;;;;;5033664;28;20041;-71
2022/01/14 09:40:01;;;;;;;41.45;25.77;;;;;;;;;;5030578;28;20049;-71
2022/01/14 09:42:30;;;;;;;38.05;26.75;;;;;;;;;;5013937;28;20096;-70
2022/01/14 09:44:57;;;;;;;41.60;25.75;;;;;;;;;;5028675;28;20042;-70
2022/01/14 09:47:23;;;;;;;43.40;25.93;;;;;;;;;;5013739;28;20049;-70
2022/01/14 09:49:50;;;;;;;39.92;27.02;;;;;;;;;;5020053;28;20138;-69
2022/01/14 09:52:17;;;;;;;37.40;26.55;;;;;;;;;;5034257;28;20115;-71
2022/01/14 09:54:44;;;;;;;40.83;26.80;;;;;;;;;;5033634;28;20131;-70
2022/01/14 09:57:13;;;;;;;41.08;26.63;;;;;;;;;;5033936;28;20053;-71
2022/01/14 09:59:40;;;;;;;52.67;34.60;;;;;;;;;;5032888;28;20045;-70
2022/01/14 10:02:07;;;;;;;66.30;38.83;;;;;;;;;;5023803;28;20100;-70
2022/01/14 10:04:35;;;;;;;50.85;36.08;;;;;;;;;;5029463;28;20092;-70
2022/01/14 10:07:03;;;;;;;70.07;45.38;;;;;;;;;;5033657;28;20061;-70
2022/01/14 10:09:34;;;;;;;59.25;37.92;;;;;;;;;;5032783;28;20045;-70
2022/01/14 10:12:13;;;;;;;63.83;37.35;;;;;;;;;;5033162;28;20049;-70
2022/01/14 10:14:40;;;;;;;59.55;35.03;;;;;;;;;;5032413;28;20049;-70
2022/01/14 10:17:08;;;;;;;56.47;33.25;;;;;;;;;;5033683;28;20050;-70
2022/01/14 10:19:36;;;;;;;52.40;31.23;;;;;;;;;;5032525;28;20489;-70
2022/01/14 10:22:22;;;;;;;52.67;31.58;;;;;;;;;;5033587;28;20049;-70
2022/01/14 10:24:55;;;;;;;48.33;31.25;;;;;;;;;;5032720;28;20046;-70
2022/01/14 10:27:35;;;;;;;42.28;31.23;;;;;;;;;;5033553;28;20053;-70
2022/01/14 10:30:08;;;;;;;47.58;32.20;;;;;;;;;;5032857;28;20049;-70
2022/01/14 10:32:36;;;;;;;43.83;31.27;;;;;;;;;;5033511;28;20529;-70
2022/01/14 10:35:04;;;;;;;44.00;31.48;;;;;;;;;;5032133;28;20049;-70
2022/01/14 10:37:34;;;;;;;45.70;30.42;;;;;;;;;;5033334;28;20049;-71
2022/01/14 10:40:03;;;;;;;44.55;30.55;;;;;;;;;;5024028;28;20096;-70
2022/01/14 10:42:31;;;;;;;43.25;30.67;;;;;;;;;;5012687;28;20037;-71
2022/01/14 10:45:15;;;;;;;42.08;30.92;;;;;;;;;;5013798;28;20520;-71
2022/01/14 10:47:49;;;;;;;39.90;29.10;;;;;;;;;;5027553;28;20095;-71
2022/01/14 10:50:16;;;;;;;38.95;28.80;;;;;;;;;;5032451;28;20453;-71
2022/01/14 10:52:48;;;;;;;38.92;26.83;;;;;;;;;;5032566;28;20055;-71
2022/01/14 10:55:26;;;;;;;34.90;26.60;;;;;;;;;;5032632;28;20057;-71
2022/01/14 10:57:52;;;;;;;32.10;26.20;;;;;;;;;;5023876;28;20103;-71
2022/01/14 11:00:49;;;;;;;31.05;26.30;;;;;;;;;;5031736;28;20146;-71
2022/01/14 11:03:30;;;;;;;29.58;25.90;;;;;;;;;;5032741;28;20083;-71
2022/01/14 11:06:14;;;;;;;30.10;26.17;;;;;;;;;;5032077;28;20057;-71
2022/01/14 11:08:40;;;;;;;28.63;25.52;;;;;;;;;;5032357;28;20393;-71
2022/01/14 11:11:07;;;;;;;28.27;23.40;;;;;;;;;;5031933;28;20107;-71
2022/01/14 11:13:33;;;;;;;32.05;23.67;;;;;;;;;;5031465;28;20559;-72
2022/01/14 11:16:00;;;;;;;25.38;21.42;;;;;;;;;;5031532;28;20539;-71
2022/01/14 11:18:27;;;;;;;26.03;22.07;;;;;;;;;;5031518;28;20460;-72
2022/01/14 11:23:39;;;;;;;24.33;21.00;;;;;;;;;;5030646;28;20049;-72
2022/01/14 11:26:11;;;;;;;30.77;24.17;;;;;;;;;;5031231;28;20050;-71
2022/01/14 11:28:39;;;;;;;27.83;23.52;;;;;;;;;;5031151;28;20463;-72
2022/01/14 11:31:25;;;;;;;29.17;24.30;;;;;;;;;;5031131;28;20493;-71
2022/01/14 11:33:53;;;;;;;42.40;32.25;;;;;;;;;;5029818;28;20045;-72
2022/01/14 11:36:20;;;;;;;32.47;26.17;;;;;;;;;;5031138;28;20103;-71
2022/01/14 11:38:46;;;;;;;25.97;21.97;;;;;;;;;;5030984;28;20041;-71
2022/01/14 11:41:16;;;;;;;23.33;20.53;;;;;;;;;;5031287;28;20146;-71
2022/01/14 11:43:54;;;;;;;19.02;16.90;;;;;;;;;;5031588;28;20282;-72
2022/01/14 11:46:36;;;;;;;16.98;15.18;;;;;;;;;;5030119;28;20513;-72
2022/01/14 11:49:21;;;;;;;15.77;14.10;;;;;;;;;;5029212;28;20056;-71
2022/01/14 11:51:59;;;;;;;14.85;13.27;;;;;;;;;;5019337;28;20084;-70
2022/01/14 11:54:39;;;;;;;16.08;14.38;;;;;;;;;;5024051;28;20675;-70
2022/01/14 11:57:06;;;;;;;18.13;15.27;;;;;;;;;;5031550;28;20383;-70
2022/01/14 11:59:32;;;;;;;16.63;14.83;;;;;;;;;;5031592;28;20049;-70
2022/01/14 12:01:59;;;;;;;14.15;12.77;;;;;;;;;;5031675;28;20288;-70
2022/01/14 12:04:45;;;;;;;15.43;13.10;;;;;;;;;;5031439;28;20079;-71
2022/01/14 12:07:11;;;;;;;13.90;12.57;;;;;;;;;;5030951;28;20100;-71
2022/01/14 12:09:56;;;;;;;14.03;12.13;;;;;;;;;;5030724;28;20541;-72
2022/01/14 12:12:23;;;;;;;12.35;11.05;;;;;;;;;;5023408;28;20100;-71
2022/01/14 12:14:58;;;;;;;13.60;11.98;;;;;;;;;;5028935;28;20390;-71
2022/01/14 12:17:38;;;;;;;12.88;11.50;;;;;;;;;;5029777;28;20069;-71
2022/01/14 12:20:12;;;;;;;12.07;10.30;;;;;;;;;;5031454;28;20502;-71
2022/01/14 12:22:39;;;;;;;12.15;10.75;;;;;;;;;;5030404;28;20049;-71
2022/01/14 12:25:06;;;;;;;14.30;10.93;;;;;;;;;;5031355;28;20042;-71
2022/01/14 12:27:41;;;;;;;11.85;10.65;;;;;;;;;;5030722;28;20045;-71
2022/01/14 12:30:23;;;;;;;25.20;22.65;;;;;;;;;;5018181;28;20087;-71
2022/01/14 12:32:54;;;;;;;18.63;15.98;;;;;;;;;;5030882;28;20049;-71
2022/01/14 12:35:25;;;;;;;15.07;13.55;;;;;;;;;;5034245;28;20054;-71
2022/01/14 12:37:53;;;;;;;11.90;10.70;;;;;;;;;;5034781;28;20053;-71
2022/01/14 12:40:20;;;;;;;11.50;10.32;;;;;;;;;;5035545;28;20049;-71
2022/01/14 12:42:53;;;;;;;12.95;10.32;;;;;;;;;;5035194;28;20053;-71
2022/01/14 12:45:26;;;;;;;11.57;10.40;;;;;;;;;;5035258;28;20077;-71
2022/01/14 12:47:59;;;;;;;11.63;10.43;;;;;;;;;;5034692;28;20111;-71
2022/01/14 12:50:26;;;;;;;11.65;10.38;;;;;;;;;;5035188;28;20108;-71
2022/01/14 12:52:52;;;;;;;11.60;10.45;;;;;;;;;;5034561;28;20065;-71
2022/01/14 12:55:19;;;;;;;10.63;8.73;;;;;;;;;;5035236;28;20049;-71
2022/01/14 12:57:45;;;;;;;10.10;8.67;;;;;;;;;;5034260;28;20053;-71
2022/01/14 13:00:13;;;;;;;9.63;8.63;;;;;;;;;;5035060;28;20046;-71
2022/01/14 13:02:40;;;;;;;9.73;8.73;;;;;;;;;;5032629;28;20060;-71
2022/01/14 13:05:16;;;;;;;10.55;8.75;;;;;;;;;;5034719;28;20541;-71
2022/01/14 13:07:43;;;;;;;9.85;8.38;;;;;;;;;;5034369;28;20045;-71
2022/01/14 13:10:09;;;;;;;;;;;;;;;;;;5035269;28;20058;-71
2022/01/14 13:12:40;;;;;;;9.57;8.68;;;;;;;;;;5031628;28;19956;-71
2022/01/14 13:15:07;;;;;;;10.05;8.45;;;;;;;;;;5025482;28;20049;-71
2022/01/14 13:17:40;;;;;;;9.70;8.32;;;;;;;;;;5032020;28;20076;-71
2022/01/14 13:20:08;;;;;;;8.55;7.65;;;;;;;;;;5029978;28;20505;-71
2022/01/14 13:22:35;;;;;;;7.45;6.57;;;;;;;;;;5034263;28;20038;-72
2022/01/14 13:25:04;;;;;;;8.55;7.72;;;;;;;;;;5033691;28;20050;-71
2022/01/14 13:27:35;;;;;;;7.60;6.80;;;;;;;;;;5034310;28;20042;-71
2022/01/14 13:30:08;;;;;;;7.53;6.82;;;;;;;;;;5033821;28;20566;-71
2022/01/14 13:32:35;;;;;;;10.52;7.20;;;;;;;;;;5032453;28;20153;-71
2022/01/14 13:35:01;;;;;;;;;;;;;;;;;;5034228;28;20192;-71
2022/01/14 13:37:28;;;;;;;10.73;7.00;;;;;;;;;;5033768;28;19971;-72
2022/01/14 13:40:05;;;;;;;9.15;6.93;;;;;;;;;;5033602;28;20077;-72
2022/01/14 13:42:31;;;;;;;;;;;;;;;;;;5028646;28;20041;-71
2022/01/14 13:45:13;;;;;;;8.68;6.60;;;;;;;;;;5033494;28;19995;-71
2022/01/14 13:47:41;;;;;;;7.97;6.72;;;;;;;;;;5032750;28;20386;-72
2022/01/14 13:50:08;;;;;;;6.70;6.00;;;;;;;;;;5033085;28;20053;-71
2022/01/14 13:52:34;;;;;;;7.43;6.70;;;;;;;;;;5033286;28;20049;-71
2022/01/14 13:55:00;;;;;;;8.10;6.95;;;;;;;;;;5033282;28;20485;-71
2022/01/14 13:57:27;;;;;;;7.10;6.40;;;;;;;;;;5033419;28;20053;-72
2022/01/14 14:00:03;;;;;;;6.73;6.13;;;;;;;;;;5033046;28;20042;-72
2022/01/14 14:02:31;;;;;;;6.78;6.18;;;;;;;;;;5033095;28;20302;-71
2022/01/14 14:04:58;;;;;;;6.80;5.55;;;;;;;;;;5032774;28;20053;-71
2022/01/14 14:07:26;;;;;;;;;;;;;;;;;;5032952;28;20049;-71
2022/01/14 14:10:17;;;;;;;8.07;6.20;;;;;;;;;;5033162;28;20064;-71
2022/01/14 14:12:48;;;;;;;6.53;5.93;;;;;;;;;;5032921;28;20053;-71
2022/01/14 14:18:00;;;;;;;7.30;6.50;;;;;;;;;;5033075;28;20123;-71
2022/01/14 14:20:27;;;;;;;6.25;5.65;;;;;;;;;;5018722;28;20046;-71
2022/01/14 14:22:53;;;;;;;6.67;5.97;;;;;;;;;;5033377;28;20088;-71
2022/01/14 14:25:26;;;;;;;7.25;6.55;;;;;;;;;;5032660;28;20096;-71
2022/01/14 14:27:52;;;;;;;8.18;7.20;;;;;;;;;;5031924;28;20053;-71
2022/01/14 14:30:19;;;;;;;7.77;6.50;;;;;;;;;;5032759;28;20512;-71
2022/01/14 14:32:46;;;;;;;7.18;6.43;;;;;;;;;;5032805;28;20053;-72
2022/01/14 14:35:16;;;;;;;8.65;7.32;;;;;;;;;;5032612;28;20053;-72
2022/01/14 14:37:46;;;;;;;9.02;8.13;;;;;;;;;;5021312;28;20042;-72
2022/01/14 14:40:17;;;;;;;8.35;7.43;;;;;;;;;;5032526;28;20103;-72
2022/01/14 14:42:45;;;;;;;9.02;7.95;;;;;;;;;;5030811;28;20045;-71
2022/01/14 14:45:12;;;;;;;9.20;8.30;;;;;;;;;;5031923;28;20081;-71
2022/01/14 14:47:38;;;;;;;;;;;;;;;;;;5032692;28;20049;-72
2022/01/14 14:50:06;;;;;;;10.63;9.10;;;;;;;;;;5032223;28;19925;-71
2022/01/14 14:52:34;;;;;;;12.05;9.93;;;;;;;;;;5032652;28;20286;-71
2022/01/14 14:55:01;;;;;;;11.50;10.13;;;;;;;;;;5031881;28;20096;-72
2022/01/14 14:57:27;;;;;;;10.20;9.20;;;;;;;;;;5029417;28;20467;-72
2022/01/14 14:59:54;;;;;;;10.57;9.57;;;;;;;;;;5025229;28;20576;-71
2022/01/14 15:02:21;;;;;;;13.93;12.18;;;;;;;;;;5030987;28;20421;-71